South Rockwood, Michigan
Current Conditions -  °F | °C
As of 3:14 AM on Thursday 27 Nov 2014 (Local Time) from KONZ Reporting Station
Overcast Overcast  
Wind Chill: 21°   Ceiling: 4000
Heat Index: 30°   Visibility: 10mi
Dew Point: 25°   Wind: 10mph
Humidity: 80%   Direction: 320°NW
Pressure: 30.07"   Gusts: NA
Location:  42.06°N, 83.26°W
Report Text: KONZ 270814Z AUTO 32009KT 10SM OVC040 M01/M04 A3007 RMK AO2
Loading
Personal Weather Stations






























Interactive Weather Map New forecast layout! Learn more

10-Day Weather Forecast

Advertisements
Track Severe Weather on mobile